createdAt,value
2022-12-17T00:00:28.182Z,12.45
2022-12-17T00:03:18.081Z,12.27
2022-12-17T00:06:04.404Z,10.98
2022-12-17T00:08:49.912Z,11.70
2022-12-17T00:11:36.031Z,12.23
2022-12-17T00:14:22.077Z,8.35
2022-12-17T00:17:08.449Z,11.32
2022-12-17T00:20:08.220Z,9.82
2022-12-17T00:22:53.985Z,6.40
2022-12-17T00:25:39.515Z,7.13
2022-12-17T00:28:29.009Z,10.20
2022-12-17T00:31:14.448Z,11.13
2022-12-17T00:33:59.901Z,4.15
2022-12-17T00:36:45.702Z,5.22
2022-12-17T00:39:31.693Z,2.92
2022-12-17T00:42:17.216Z,9.48
2022-12-17T00:45:02.600Z,11.68
2022-12-17T00:47:48.590Z,11.85
2022-12-17T00:50:33.931Z,10.48
2022-12-17T00:53:20.222Z,9.88
2022-12-17T00:56:05.894Z,8.85
2022-12-17T00:58:51.887Z,10.07
2022-12-17T01:01:37.621Z,8.07
2022-12-17T01:04:23.433Z,7.78
2022-12-17T01:07:13.253Z,8.23
2022-12-17T01:09:59.013Z,7.22
2022-12-17T01:12:45.108Z,7.65
2022-12-17T01:15:30.998Z,3.90
2022-12-17T01:18:16.455Z,6.70
2022-12-17T01:21:01.716Z,6.20
2022-12-17T01:23:47.009Z,5.50
2022-12-17T01:26:32.464Z,6.78
2022-12-17T01:29:18.243Z,5.25
2022-12-17T01:32:05.117Z,4.70
2022-12-17T01:34:50.549Z,3.80
2022-12-17T01:37:49.568Z,5.18
2022-12-17T01:40:34.756Z,4.22
2022-12-17T01:43:20.391Z,4.00
2022-12-17T01:46:08.004Z,5.32
2022-12-17T01:49:00.133Z,6.95
2022-12-17T01:51:48.091Z,5.43
2022-12-17T01:54:34.292Z,6.32
2022-12-17T01:57:21.036Z,7.45
2022-12-17T02:00:23.709Z,5.78
2022-12-17T02:03:09.134Z,7.45
2022-12-17T02:06:08.894Z,9.18
2022-12-17T02:09:03.409Z,9.05
2022-12-17T02:11:49.646Z,8.73
2022-12-17T02:14:42.321Z,6.45
2022-12-17T02:17:33.361Z,7.82
2022-12-17T02:20:19.347Z,5.25
2022-12-17T02:23:44.112Z,6.97
2022-12-17T02:27:00.749Z,6.82
2022-12-17T02:29:50.186Z,1.80
2022-12-17T02:32:37.574Z,7.07
2022-12-17T02:35:31.290Z,5.90
2022-12-17T02:38:16.671Z,6.05
2022-12-17T02:41:05.022Z,4.30
2022-12-17T02:43:52.322Z,7.78
2022-12-17T02:46:39.775Z,9.30
2022-12-17T02:49:25.178Z,8.02
2022-12-17T02:52:13.172Z,7.18
2022-12-17T02:54:58.473Z,9.93
2022-12-17T02:57:46.506Z,8.20
2022-12-17T03:00:35.384Z,7.15
2022-12-17T03:03:21.145Z,9.38
2022-12-17T03:06:06.837Z,7.50
2022-12-17T03:08:52.718Z,8.77
2022-12-17T03:11:38.209Z,7.57
2022-12-17T03:14:23.862Z,8.55
2022-12-17T03:17:09.394Z,8.85
2022-12-17T03:19:54.910Z,8.50
2022-12-17T03:22:40.126Z,11.45
2022-12-17T03:25:25.682Z,10.68
2022-12-17T03:28:11.238Z,10.88
2022-12-17T03:30:57.310Z,8.95
2022-12-17T03:33:44.067Z,11.80
2022-12-17T03:36:29.634Z,10.07
2022-12-17T03:39:14.798Z,8.38
2022-12-17T03:42:00.358Z,10.02
2022-12-17T03:44:45.775Z,11.68
2022-12-17T03:47:31.598Z,9.23
2022-12-17T03:50:17.098Z,9.13
2022-12-17T03:53:03.010Z,9.95
2022-12-17T03:55:48.617Z,12.50
2022-12-17T03:58:33.938Z,11.30
2022-12-17T04:01:19.922Z,10.32
2022-12-17T04:04:05.575Z,9.18
2022-12-17T04:06:51.999Z,10.07
2022-12-17T04:09:38.203Z,12.20
2022-12-17T04:12:24.048Z,7.00
2022-12-17T04:15:10.051Z,11.00
2022-12-17T04:17:56.239Z,12.23
2022-12-17T04:20:42.071Z,7.63
2022-12-17T04:23:27.703Z,11.82
2022-12-17T04:26:13.583Z,10.27
2022-12-17T04:28:59.043Z,10.68
2022-12-17T04:31:44.567Z,9.25
2022-12-17T04:34:29.927Z,9.55
2022-12-17T04:37:15.253Z,10.90
2022-12-17T04:40:00.723Z,12.30
2022-12-17T04:42:46.647Z,12.73
2022-12-17T04:45:32.585Z,11.35
2022-12-17T04:48:23.075Z,10.23
2022-12-17T04:51:08.309Z,11.15
2022-12-17T04:53:53.763Z,11.82
2022-12-17T04:56:40.215Z,9.02
2022-12-17T04:59:25.567Z,12.88
2022-12-17T05:02:11.496Z,11.65
2022-12-17T05:04:56.939Z,13.65
2022-12-17T05:07:42.517Z,12.32
2022-12-17T05:10:27.798Z,11.57
2022-12-17T05:13:18.228Z,13.73
2022-12-17T05:16:04.340Z,11.68
2022-12-17T05:18:50.744Z,14.93
2022-12-17T05:21:36.227Z,15.95
2022-12-17T05:24:21.603Z,14.70
2022-12-17T05:27:07.435Z,9.35
2022-12-17T05:29:53.018Z,10.48
2022-12-17T05:32:38.679Z,12.85
2022-12-17T05:35:24.614Z,12.60
2022-12-17T05:38:09.988Z,14.25
2022-12-17T05:40:55.234Z,12.63
2022-12-17T05:43:40.564Z,9.23
2022-12-17T05:46:26.083Z,13.98
2022-12-17T05:49:11.455Z,12.13
2022-12-17T05:51:57.040Z,9.68
2022-12-17T05:54:42.940Z,13.18
2022-12-17T05:57:28.299Z,10.05
2022-12-17T06:00:13.663Z,12.00
2022-12-17T06:02:59.134Z,9.75
2022-12-17T06:05:44.527Z,13.07
2022-12-17T06:08:30.512Z,12.65
2022-12-17T06:11:19.017Z,12.25
2022-12-17T06:14:06.012Z,10.20
2022-12-17T06:16:52.327Z,11.63
2022-12-17T06:19:38.419Z,9.93
2022-12-17T06:22:23.776Z,7.45
2022-12-17T06:25:09.440Z,9.65
2022-12-17T06:27:54.869Z,9.35
2022-12-17T06:30:40.161Z,11.13
2022-12-17T06:33:27.899Z,10.60
2022-12-17T06:36:21.639Z,10.20
2022-12-17T06:39:08.323Z,10.95
2022-12-17T06:42:02.198Z,9.45
2022-12-17T06:44:49.824Z,10.10
2022-12-17T06:47:35.216Z,10.18
2022-12-17T06:50:20.620Z,9.10
2022-12-17T06:53:06.076Z,10.23
2022-12-17T06:55:51.356Z,10.93
2022-12-17T06:58:37.682Z,9.23
2022-12-17T07:01:23.152Z,11.30
2022-12-17T07:04:09.684Z,15.23
2022-12-17T07:06:55.145Z,22.85
2022-12-17T07:09:43.289Z,15.90
2022-12-17T07:12:28.632Z,26.63
2022-12-17T07:15:14.361Z,11.32
2022-12-17T07:17:59.728Z,9.13
2022-12-17T07:20:45.124Z,10.45
2022-12-17T07:23:30.564Z,13.35
2022-12-17T07:26:16.345Z,14.35
2022-12-17T07:29:01.789Z,15.02
2022-12-17T07:31:47.162Z,12.40
2022-12-17T07:34:33.512Z,12.18
2022-12-17T07:37:20.759Z,11.27
2022-12-17T07:40:06.352Z,11.13
2022-12-17T07:42:51.895Z,10.00
2022-12-17T07:45:37.310Z,10.27
2022-12-17T07:48:23.388Z,9.93
2022-12-17T07:51:09.972Z,9.80
2022-12-17T07:53:55.764Z,11.98
2022-12-17T07:56:41.678Z,10.02
2022-12-17T07:59:26.973Z,12.23
2022-12-17T08:02:13.126Z,15.13
2022-12-17T08:04:58.905Z,11.27
2022-12-17T08:07:45.189Z,11.90
2022-12-17T08:10:32.518Z,13.05
2022-12-17T08:13:21.513Z,9.60
2022-12-17T08:16:08.045Z,10.38
2022-12-17T08:18:54.117Z,15.02
2022-12-17T08:21:40.524Z,10.50
2022-12-17T08:24:26.028Z,15.13
2022-12-17T08:27:11.332Z,11.73
2022-12-17T08:29:56.682Z,13.23
2022-12-17T08:32:42.734Z,14.45
2022-12-17T08:35:28.022Z,13.48
2022-12-17T08:38:20.129Z,13.48
2022-12-17T08:41:05.441Z,14.27
2022-12-17T08:43:50.955Z,16.80
2022-12-17T08:46:36.769Z,14.23
2022-12-17T08:49:22.037Z,16.30
2022-12-17T08:52:07.341Z,18.55
2022-12-17T08:54:52.709Z,18.00
2022-12-17T08:57:38.115Z,21.88
2022-12-17T09:00:23.978Z,60.72
2022-12-17T09:03:19.582Z,19.85
2022-12-17T09:06:05.413Z,17.08
2022-12-17T09:08:50.857Z,16.27
2022-12-17T09:11:36.184Z,13.10
2022-12-17T09:14:22.079Z,16.08
2022-12-17T09:17:07.537Z,15.02
2022-12-17T09:19:52.953Z,20.63
2022-12-17T09:22:38.206Z,17.63
2022-12-17T09:25:24.077Z,26.27
2022-12-17T09:28:09.605Z,13.38
2022-12-17T09:30:55.259Z,16.73
2022-12-17T09:33:40.691Z,13.68
2022-12-17T09:36:40.802Z,16.15
2022-12-17T09:39:27.601Z,14.25
2022-12-17T09:42:21.201Z,16.73
2022-12-17T09:45:19.862Z,15.40
2022-12-17T09:48:41.976Z,17.30
2022-12-17T09:51:41.396Z,21.67
2022-12-17T09:54:46.990Z,16.52
2022-12-17T09:57:37.029Z,23.40
2022-12-17T10:00:45.590Z,25.08
2022-12-17T10:03:36.034Z,71.85
2022-12-17T10:06:30.330Z,86.82
2022-12-17T10:09:20.966Z,44.17
2022-12-17T10:12:06.615Z,19.45
2022-12-17T10:14:52.429Z,18.58
2022-12-17T10:17:41.460Z,18.50
2022-12-17T10:20:43.669Z,19.58
2022-12-17T10:23:28.958Z,18.65
2022-12-17T10:26:15.806Z,17.67
2022-12-17T10:29:01.209Z,30.95
2022-12-17T10:31:48.987Z,18.45
2022-12-17T10:34:37.810Z,18.23
2022-12-17T10:40:20.274Z,17.90
2022-12-17T10:43:05.641Z,17.67
2022-12-17T10:45:54.424Z,17.80
2022-12-17T10:48:41.170Z,22.23
2022-12-17T10:51:53.795Z,29.05
2022-12-17T10:54:47.001Z,22.13
2022-12-17T10:57:49.278Z,35.55
2022-12-17T11:00:54.550Z,21.90
2022-12-17T11:03:42.883Z,17.15
2022-12-17T11:06:30.047Z,16.55
2022-12-17T11:09:18.198Z,15.98
2022-12-17T11:12:07.489Z,16.27
2022-12-17T11:15:04.678Z,16.08
2022-12-17T11:17:50.299Z,16.63
2022-12-17T11:20:53.239Z,15.85
2022-12-17T11:23:40.778Z,16.75
2022-12-17T11:26:33.182Z,15.95
2022-12-17T11:29:19.206Z,19.52
2022-12-17T11:32:18.743Z,15.93
2022-12-17T11:35:24.607Z,16.60
2022-12-17T11:38:26.487Z,14.18
2022-12-17T11:41:16.742Z,14.13
2022-12-17T11:44:22.178Z,16.77
2022-12-17T11:47:21.619Z,15.82
2022-12-17T11:50:42.813Z,24.25
2022-12-17T11:53:57.243Z,15.15
2022-12-17T11:56:49.634Z,15.05
2022-12-17T11:59:49.475Z,14.30
2022-12-17T12:02:44.934Z,14.85
2022-12-17T12:05:57.911Z,14.32
2022-12-17T12:08:47.450Z,13.65
2022-12-17T12:11:55.491Z,13.30
2022-12-17T12:14:56.011Z,12.68
2022-12-17T12:18:01.782Z,12.77
2022-12-17T12:20:53.634Z,12.77
2022-12-17T12:23:45.256Z,12.20
2022-12-17T12:26:48.871Z,12.60
2022-12-17T12:29:54.884Z,11.10
2022-12-17T12:33:09.838Z,11.93
2022-12-17T12:35:56.700Z,11.00
2022-12-17T12:38:55.875Z,10.32
2022-12-17T12:41:52.998Z,10.10
2022-12-17T12:44:57.931Z,10.30
2022-12-17T12:48:17.479Z,9.75
2022-12-17T12:51:11.972Z,9.32
2022-12-17T12:53:57.275Z,10.20
2022-12-17T12:56:48.320Z,10.95
2022-12-17T12:59:53.933Z,10.23
2022-12-17T13:02:40.910Z,9.23
2022-12-17T13:05:33.603Z,9.90
2022-12-17T13:08:19.617Z,9.10
2022-12-17T13:10:47.876Z,7.82
2022-12-17T13:13:31.313Z,8.82
2022-12-17T13:16:25.891Z,9.68
2022-12-17T13:19:04.056Z,18.63
2022-12-17T13:21:31.751Z,10.55
2022-12-17T13:24:12.113Z,8.93
2022-12-17T13:26:39.525Z,7.22
2022-12-17T13:29:28.813Z,8.90
2022-12-17T13:32:04.872Z,9.75
2022-12-17T13:34:43.588Z,8.88
2022-12-17T13:37:37.460Z,7.55
2022-12-17T13:40:21.512Z,9.18
2022-12-17T13:42:49.088Z,9.38
2022-12-17T13:45:22.877Z,9.77
2022-12-17T13:47:55.764Z,8.73
2022-12-17T13:50:35.212Z,9.30
2022-12-17T13:53:13.073Z,8.43
2022-12-17T13:55:40.981Z,9.00
2022-12-17T13:58:21.891Z,9.30
2022-12-17T14:00:48.816Z,13.13
2022-12-17T14:03:37.162Z,10.90
2022-12-17T14:06:10.657Z,10.63
2022-12-17T14:08:38.670Z,14.02
2022-12-17T14:11:25.913Z,26.23
2022-12-17T14:13:53.796Z,16.08
2022-12-17T14:16:21.938Z,18.35
2022-12-17T14:18:57.612Z,13.25
2022-12-17T14:21:27.484Z,5.03
2022-12-17T14:23:55.772Z,9.05
2022-12-17T14:26:22.837Z,8.60
2022-12-17T14:28:52.852Z,9.30
2022-12-17T14:31:27.919Z,13.45
2022-12-17T14:34:07.107Z,11.15
2022-12-17T14:36:36.619Z,8.48
2022-12-17T14:39:15.120Z,9.18
2022-12-17T14:42:03.114Z,8.00
2022-12-17T14:44:31.547Z,7.30
2022-12-17T14:47:24.068Z,7.47
2022-12-17T14:50:12.651Z,8.70
2022-12-17T14:52:42.268Z,7.22
2022-12-17T14:55:53.507Z,8.15
2022-12-17T14:58:24.777Z,7.30
2022-12-17T15:01:13.044Z,6.55
2022-12-17T15:03:46.594Z,6.82
2022-12-17T15:06:18.324Z,7.75
2022-12-17T15:08:47.841Z,8.85
2022-12-17T15:11:17.806Z,7.97
2022-12-17T15:13:49.222Z,7.75
2022-12-17T15:16:19.822Z,8.00
2022-12-17T15:18:48.394Z,8.88
2022-12-17T15:21:17.094Z,7.28
2022-12-17T15:23:45.309Z,8.10
2022-12-17T15:26:12.568Z,7.25
2022-12-17T15:28:39.993Z,7.95
2022-12-17T15:31:08.738Z,7.45
2022-12-17T15:33:35.552Z,7.93
2022-12-17T15:36:02.436Z,6.40
2022-12-17T15:38:29.265Z,7.80
2022-12-17T15:40:56.066Z,7.05
2022-12-17T15:43:23.969Z,6.65
2022-12-17T15:45:52.007Z,7.50
2022-12-17T15:48:21.420Z,6.95
2022-12-17T15:50:48.797Z,7.65
2022-12-17T15:53:16.463Z,7.45
2022-12-17T15:55:43.458Z,7.65
2022-12-17T15:58:11.457Z,8.40
2022-12-17T16:00:38.564Z,7.35
2022-12-17T16:03:05.906Z,7.15
2022-12-17T16:05:32.891Z,7.88
2022-12-17T16:08:24.936Z,8.10
2022-12-17T16:10:52.510Z,7.13
2022-12-17T16:13:19.821Z,5.78
2022-12-17T16:16:04.060Z,7.55
2022-12-17T16:18:32.845Z,6.55
2022-12-17T16:21:08.037Z,7.50
2022-12-17T16:23:35.733Z,6.50
2022-12-17T16:26:04.907Z,6.13
2022-12-17T16:28:32.609Z,6.93
2022-12-17T16:31:05.279Z,7.32
2022-12-17T16:33:36.187Z,6.25
2022-12-17T16:36:04.123Z,7.20
2022-12-17T16:38:31.052Z,7.32
2022-12-17T16:40:59.252Z,7.03
2022-12-17T16:43:27.824Z,7.20
2022-12-17T16:45:55.035Z,6.90
2022-12-17T16:48:22.638Z,7.50
2022-12-17T16:50:50.553Z,6.18
2022-12-17T16:53:18.613Z,6.28
2022-12-17T16:55:47.312Z,6.32
2022-12-17T16:58:17.157Z,6.47
2022-12-17T17:00:46.270Z,7.00
2022-12-17T17:03:13.368Z,6.40
2022-12-17T17:05:40.644Z,7.50
2022-12-17T17:08:07.553Z,6.57
2022-12-17T17:10:36.745Z,6.43
2022-12-17T17:13:04.215Z,7.25
2022-12-17T17:15:31.269Z,5.88
2022-12-17T17:18:01.888Z,7.53
2022-12-17T17:20:32.228Z,7.88
2022-12-17T17:22:59.744Z,4.68
2022-12-17T17:25:43.875Z,6.80
2022-12-17T17:28:13.894Z,4.97
2022-12-17T17:30:40.773Z,6.57
2022-12-17T17:33:07.678Z,5.63
2022-12-17T17:35:34.496Z,5.80
2022-12-17T17:38:01.382Z,6.90
2022-12-17T17:40:28.292Z,6.78
2022-12-17T17:42:55.310Z,6.10
2022-12-17T17:45:22.171Z,6.45
2022-12-17T17:47:50.210Z,6.13
2022-12-17T17:50:17.102Z,6.35
2022-12-17T17:52:44.053Z,7.63
2022-12-17T17:55:10.910Z,7.93
2022-12-17T17:57:37.705Z,6.43
2022-12-17T18:00:05.203Z,6.05
2022-12-17T18:02:32.626Z,6.60
2022-12-17T18:04:59.701Z,6.35
2022-12-17T18:07:27.866Z,7.72
2022-12-17T18:09:55.993Z,6.90
2022-12-17T18:12:42.047Z,6.20
2022-12-17T18:15:14.929Z,6.32
2022-12-17T18:17:49.412Z,5.53
2022-12-17T18:20:17.287Z,4.75
2022-12-17T18:22:45.951Z,6.05
2022-12-17T18:25:14.987Z,6.70
2022-12-17T18:27:42.941Z,6.68
2022-12-17T18:30:10.900Z,6.15
2022-12-17T18:32:38.153Z,5.78
2022-12-17T18:35:05.471Z,4.47
2022-12-17T18:37:33.534Z,6.43
2022-12-17T18:40:00.943Z,6.05
2022-12-17T18:42:46.423Z,6.72
2022-12-17T18:45:13.367Z,5.80
2022-12-17T18:47:42.380Z,5.57
2022-12-17T18:50:09.670Z,8.45
2022-12-17T18:52:36.568Z,4.40
2022-12-17T18:55:04.003Z,5.78
2022-12-17T18:57:30.835Z,6.85
2022-12-17T18:59:57.700Z,7.10
2022-12-17T19:02:24.697Z,7.30
2022-12-17T19:04:51.542Z,7.60
2022-12-17T19:07:18.416Z,8.07
2022-12-17T19:09:45.458Z,7.80
2022-12-17T19:12:12.874Z,5.75
2022-12-17T19:14:39.751Z,7.38
2022-12-17T19:17:06.591Z,6.22
2022-12-17T19:19:33.887Z,5.40
2022-12-17T19:22:02.084Z,6.80
2022-12-17T19:24:29.416Z,6.07
2022-12-17T19:26:56.656Z,8.05
2022-12-17T19:29:23.460Z,7.38
2022-12-17T19:31:50.743Z,5.95
2022-12-17T19:34:18.683Z,7.45
2022-12-17T19:36:47.012Z,6.93
2022-12-17T19:39:17.610Z,6.72
2022-12-17T19:41:45.174Z,6.35
2022-12-17T19:44:14.667Z,6.07
2022-12-17T19:46:41.823Z,5.93
2022-12-17T19:49:11.803Z,5.10
2022-12-17T19:51:43.842Z,4.38
2022-12-17T19:54:13.023Z,6.68
2022-12-17T19:56:40.626Z,5.63
2022-12-17T19:59:10.031Z,5.40
2022-12-17T20:01:43.365Z,5.53
2022-12-17T20:04:12.775Z,13.40
2022-12-17T20:06:40.204Z,11.02
2022-12-17T20:09:07.869Z,9.35
2022-12-17T20:11:35.747Z,10.60
2022-12-17T20:14:15.476Z,6.10
2022-12-17T20:16:48.180Z,3.85
2022-12-17T20:19:19.054Z,6.07
2022-12-17T20:21:46.718Z,5.45
2022-12-17T20:24:14.536Z,5.57
2022-12-17T20:26:42.487Z,5.43
2022-12-17T20:29:09.968Z,5.55
2022-12-17T20:31:37.227Z,5.78
2022-12-17T20:34:06.745Z,6.93
2022-12-17T20:36:36.277Z,4.18
2022-12-17T20:39:03.697Z,3.20
2022-12-17T20:41:32.184Z,7.38
2022-12-17T20:44:10.646Z,4.43
2022-12-17T20:46:37.939Z,5.90
2022-12-17T20:49:05.520Z,8.07
2022-12-17T20:51:32.636Z,3.53
2022-12-17T20:54:01.493Z,5.65
2022-12-17T20:56:31.410Z,3.88
2022-12-17T20:59:03.620Z,7.47
2022-12-17T21:01:32.919Z,5.53
2022-12-17T21:04:00.749Z,5.03
2022-12-17T21:06:33.480Z,5.38
2022-12-17T21:09:00.609Z,5.35
2022-12-17T21:11:29.375Z,3.40
2022-12-17T21:13:57.113Z,5.53
2022-12-17T21:16:27.564Z,4.30
2022-12-17T21:18:56.047Z,5.97
2022-12-17T21:21:29.150Z,6.10
2022-12-17T21:23:57.421Z,6.22
2022-12-17T21:26:29.125Z,6.47
2022-12-17T21:29:00.229Z,5.85
2022-12-17T21:31:33.049Z,6.22
2022-12-17T21:34:02.996Z,5.78
2022-12-17T21:36:31.421Z,6.32
2022-12-17T21:38:59.706Z,6.75
2022-12-17T21:41:31.377Z,5.22
2022-12-17T21:44:00.917Z,5.78
2022-12-17T21:46:28.901Z,6.18
2022-12-17T21:49:00.963Z,5.88
2022-12-17T21:51:30.261Z,5.80
2022-12-17T21:54:02.742Z,6.40
2022-12-17T21:56:36.009Z,7.50
2022-12-17T21:59:03.084Z,5.93
2022-12-17T22:01:33.411Z,6.10
2022-12-17T22:04:03.109Z,5.47
2022-12-17T22:06:35.518Z,5.90
2022-12-17T22:09:29.682Z,6.10
2022-12-17T22:12:21.275Z,6.35
2022-12-17T22:14:48.865Z,6.47
2022-12-17T22:17:16.294Z,6.53
2022-12-17T22:19:43.786Z,6.20
2022-12-17T22:22:11.292Z,6.68
2022-12-17T22:24:38.512Z,8.55
2022-12-17T22:27:08.111Z,5.97
2022-12-17T22:29:55.503Z,6.55
2022-12-17T22:32:41.708Z,6.20
2022-12-17T22:36:31.702Z,6.97
2022-12-17T22:43:27.440Z,6.70
2022-12-17T22:44:32.291Z,6.45
2022-12-17T22:44:42.606Z,5.20
2022-12-17T22:46:17.346Z,5.85
2022-12-17T22:48:44.770Z,4.60
2022-12-17T22:51:13.434Z,5.53
2022-12-17T22:53:46.697Z,5.97
2022-12-17T22:56:28.636Z,4.80
2022-12-17T22:59:01.333Z,5.65
2022-12-17T23:01:28.490Z,6.18
2022-12-17T23:04:00.224Z,6.97
2022-12-17T23:06:27.241Z,6.45
2022-12-17T23:08:54.558Z,6.25
2022-12-17T23:11:27.785Z,5.13
2022-12-17T23:13:55.342Z,6.18
2022-12-17T23:16:22.854Z,3.53
2022-12-17T23:18:51.286Z,6.82
2022-12-17T23:21:22.026Z,4.22
2022-12-17T23:23:48.841Z,6.03
2022-12-17T23:26:19.898Z,4.78
2022-12-17T23:28:47.502Z,5.57
2022-12-17T23:31:17.923Z,6.57
2022-12-17T23:33:46.002Z,4.22
2022-12-17T23:36:18.991Z,4.90
2022-12-17T23:38:47.529Z,4.78
2022-12-17T23:41:20.025Z,5.53
2022-12-17T23:43:49.468Z,4.07
2022-12-17T23:46:18.364Z,6.53
2022-12-17T23:48:47.126Z,4.90
2022-12-17T23:51:16.320Z,4.90
2022-12-17T23:53:43.753Z,5.88
2022-12-17T23:56:22.405Z,3.85
2022-12-17T23:58:52.795Z,5.05
